Airfield :
LOGIN :

Register | Disclaimer

   EN    FR    IT 

 










Legend :    VFR   Marginal VFR   IFR   Intensive IFR   Very Intensive IFR
Visi :
Ceiling :
>= 8 km
>= 3000ft
5 to 8 km
1000 to 3000 ft
1500m to 5 km
500 to 1000 ft
800 to 1500m
200 to 500 ft
< 800m
< 200 ft
Symbols :   Thunderstorms  Fog  Heavy snow  Heavy precipitations  Wind > 20 kt
SIGMETs :     Misc.  Thunderstorms  Icing  Turbulence  Mountain Waves  Volcanic Ashes







- Airport Elevation : 121 ft
- IATA code : HUY
- Download approach charts


EGNJ - Humberside

CURRENT METAR :
  • 262350Z AUTO 09005KT 060V120 9999 NCD 12/10 Q1013

EXPIRED METARs :
  • 262320Z AUTO 09008KT 9999 NCD 12/10 Q1014
  • 262250Z AUTO 09007KT 9999 NCD 12/10 Q1014
  • 262220Z AUTO 09007KT 9999 NCD 12/10 Q1014
  • 262150Z AUTO 09006KT 9999 NCD 12/10 Q1014
  • 262120Z AUTO 08005KT 9999 NCD 12/10 Q1014

TAF TAF EGNJ
Valid from the 27 at 00:00 until the 27 at 09:00 UTC


262259Z 2700/2709 10009KT 9999 FEW030
PROB40
TEMPO 2703/2709 7000 RA
ATIS : +44 1652 682 020
No reported NOTAMs for that airfield.



MET'MAP, your aeronautical weather chart ! - Copyright ORBIFLY December 2007 - Disclaimer

ORBIFLY MET'MAP TEAM :

Programming & Development : Alexandra Zaïnal
Concept & Development : Baudouin d'Aumeries
Co-Development & Prog : Marc-Olivier Méhu
Technical & hardware support : Manuel Goepfert

Contact : metmap@orbifly.com




SOURCES & CREDITS :

   NOAA